Time;durP1;ratioP1;P1;durP2;ratioP2;P2;SDS_P1;SDS_P2;PMS_P1;PMS_P2;Temp;Humidity;BMP_temperature;BMP_pressure;BME280_temperature;BME280_humidity;BME280_pressure;Samples;Min_cycle;Max_cycle;Signal;HPM_P1;HPM_P2
2022/05/12 00:00:19;;;;;;;5.07;4.13;;;17.80;99.90;;;;;;5071629;28;20499;-70
2022/05/12 00:02:45;;;;;;;4.23;3.80;;;17.70;99.90;;;;;;5069986;28;20522;-70
2022/05/12 00:05:11;;;;;;;5.23;3.70;;;17.60;99.90;;;;;;5072011;28;20591;-70
2022/05/12 00:07:37;;;;;;;4.73;4.30;;;17.70;99.90;;;;;;5071828;28;20432;-70
2022/05/12 00:10:06;;;;;;;7.00;5.30;;;17.60;99.90;;;;;;5071539;28;20165;-70
2022/05/12 00:12:31;;;;;;;6.13;4.10;;;17.70;99.90;;;;;;5070236;28;20208;-70
2022/05/12 00:14:57;;;;;;;6.27;4.37;;;17.60;99.90;;;;;;5053960;28;20439;-71
2022/05/12 00:17:22;;;;;;;5.80;4.80;;;17.70;99.90;;;;;;5071887;28;20193;-70
2022/05/12 00:19:48;;;;;;;5.57;4.20;;;17.60;99.90;;;;;;5071692;28;20578;-70
2022/05/12 00:22:13;;;;;;;7.57;4.80;;;17.70;99.90;;;;;;5070139;28;20225;-70
2022/05/12 00:24:39;;;;;;;6.43;4.93;;;17.70;99.90;;;;;;5071724;28;20228;-70
2022/05/12 00:27:04;;;;;;;5.80;4.87;;;17.60;99.90;;;;;;5071244;28;20195;-70
2022/05/12 00:29:30;;;;;;;8.43;4.27;;;17.50;99.90;;;;;;5074018;28;20183;-70
2022/05/12 00:31:55;;;;;;;5.80;5.30;;;17.50;99.90;;;;;;5076218;28;20653;-70
2022/05/12 00:34:21;;;;;;;5.53;4.97;;;17.30;99.90;;;;;;5073960;28;20173;-70
2022/05/12 00:36:48;;;;;;;4.73;4.33;;;17.00;99.90;;;;;;5075613;28;20177;-70
2022/05/12 00:39:14;;;;;;;6.97;5.43;;;17.00;99.90;;;;;;5057441;28;20849;-70
2022/05/12 00:41:40;;;;;;;7.53;5.00;;;17.10;99.90;;;;;;5075594;28;20403;-70
2022/05/12 00:44:09;;;;;;;5.97;5.40;;;17.20;99.90;;;;;;5074035;28;20459;-71
2022/05/12 00:46:37;;;;;;;6.20;5.60;;;17.10;99.90;;;;;;5075776;28;20404;-70
2022/05/12 00:49:24;;;;;;;6.73;5.23;;;17.20;99.90;;;;;;5057370;28;20459;-70
2022/05/12 00:52:13;;;;;;;7.77;5.63;;;17.20;99.90;;;;;;5073903;28;20403;-70
2022/05/12 00:54:39;;;;;;;6.57;5.97;;;17.20;99.90;;;;;;5075647;28;20537;-70
2022/05/12 00:57:07;;;;;;;7.20;6.00;;;17.30;99.90;;;;;;5075144;28;20594;-70
2022/05/12 00:59:34;;;;;;;6.90;5.10;;;17.30;99.90;;;;;;5074983;28;20245;-70
2022/05/12 01:02:02;;;;;;;6.57;5.87;;;17.20;99.90;;;;;;5075367;28;20414;-70
2022/05/12 01:04:31;;;;;;;6.33;5.73;;;17.20;99.90;;;;;;5073351;28;20980;-70
2022/05/12 01:06:58;;;;;;;7.00;5.90;;;17.20;99.90;;;;;;5075064;28;20415;-70
2022/05/12 01:09:26;;;;;;;7.30;6.60;;;17.10;99.90;;;;;;5074706;28;20946;-70
2022/05/12 01:11:52;;;;;;;9.73;6.53;;;17.10;99.90;;;;;;5075098;28;20819;-70
2022/05/12 01:14:18;;;;;;;6.47;5.87;;;17.00;99.90;;;;;;5073315;28;20787;-70
2022/05/12 01:16:50;;;;;;;7.27;6.50;;;17.00;99.90;;;;;;5075051;28;20418;-70
2022/05/12 01:19:19;;;;;;;6.43;5.60;;;17.10;99.90;;;;;;5074558;28;20517;-70
2022/05/12 01:21:46;;;;;;;9.50;6.47;;;17.10;99.90;;;;;;5075167;28;20412;-71
2022/05/12 01:24:12;;;;;;;8.00;6.60;;;17.20;99.90;;;;;;5072455;28;20957;-70
2022/05/12 01:26:38;;;;;;;6.20;5.60;;;17.00;99.90;;;;;;5074406;28;20205;-71
2022/05/12 01:29:05;;;;;;;8.70;6.50;;;16.70;99.90;;;;;;5074595;28;20864;-70
2022/05/12 01:31:31;;;;;;;6.60;5.80;;;16.40;99.90;;;;;;5074686;28;20631;-71
2022/05/12 01:33:57;;;;;;;8.53;5.90;;;16.30;99.90;;;;;;5056811;28;20408;-70
2022/05/12 01:36:22;;;;;;;6.83;5.20;;;16.10;99.90;;;;;;5072856;28;20451;-70
2022/05/12 01:38:48;;;;;;;5.13;4.63;;;16.00;99.90;;;;;;5074558;28;20548;-70
2022/05/12 01:41:15;;;;;;;6.90;5.60;;;16.00;99.90;;;;;;5073654;28;20185;-70
2022/05/12 01:43:41;;;;;;;8.17;5.67;;;16.10;99.90;;;;;;5056329;28;20492;-70
2022/05/12 01:46:07;;;;;;;6.47;5.30;;;16.00;99.90;;;;;;5072747;28;20428;-70
2022/05/12 01:48:33;;;;;;;6.50;5.80;;;15.80;99.90;;;;;;5074075;28;20948;-70
2022/05/12 01:50:59;;;;;;;8.43;5.77;;;15.80;99.90;;;;;;5074104;28;20638;-70
2022/05/12 01:53:25;;;;;;;7.80;6.47;;;15.70;99.90;;;;;;5074312;28;20423;-70
2022/05/12 01:55:51;;;;;;;9.23;6.10;;;15.50;99.90;;;;;;5072631;28;20408;-70
2022/05/12 01:58:18;;;;;;;7.00;5.87;;;15.50;99.90;;;;;;5074123;28;20467;-70
2022/05/12 02:00:44;;;;;;;8.43;5.73;;;15.50;99.90;;;;;;5074037;28;20177;-70
2022/05/12 02:03:10;;;;;;;6.73;6.07;;;15.40;99.90;;;;;;5074351;28;20410;-70
2022/05/12 02:05:37;;;;;;;8.30;5.87;;;15.20;99.90;;;;;;5074495;28;20634;-70
2022/05/12 02:08:05;;;;;;;6.67;5.93;;;15.20;99.90;;;;;;5072598;28;20473;-70
2022/05/12 02:10:37;;;;;;;7.30;5.20;;;15.00;99.90;;;;;;5073612;28;20408;-70
2022/05/12 02:13:04;;;;;;;6.37;5.57;;;14.80;99.90;;;;;;5074321;28;20810;-70
2022/05/12 02:15:29;;;;;;;6.20;5.53;;;14.80;99.90;;;;;;5073943;28;20482;-70
2022/05/12 02:17:55;;;;;;;10.63;6.30;;;14.70;99.90;;;;;;5072090;28;20451;-70
2022/05/12 02:20:22;;;;;;;6.23;5.23;;;14.70;99.90;;;;;;5073576;28;20638;-70
2022/05/12 02:22:48;;;;;;;6.03;5.10;;;14.60;99.90;;;;;;5073785;28;20180;-69
2022/05/12 02:25:13;;;;;;;5.33;4.83;;;14.60;99.90;;;;;;5073519;28;20455;-70
2022/05/12 02:27:45;;;;;;;8.20;5.70;;;14.50;99.90;;;;;;5072943;28;20202;-69
2022/05/12 02:30:17;;;;;;;6.40;5.80;;;14.60;99.90;;;;;;5056338;28;20189;-70
2022/05/12 02:32:43;;;;;;;6.63;5.53;;;14.50;99.90;;;;;;5073546;28;20407;-70
2022/05/12 02:35:09;;;;;;;6.10;5.47;;;14.40;99.90;;;;;;5055779;28;20411;-69
2022/05/12 02:37:34;;;;;;;7.70;6.20;;;14.30;99.90;;;;;;5073226;28;20197;-70
2022/05/12 02:40:00;;;;;;;7.45;6.75;;;14.10;99.90;;;;;;5072337;28;20418;-70
2022/05/12 02:42:25;;;;;;;6.60;5.97;;;14.00;99.90;;;;;;5073433;28;20174;-70
2022/05/12 02:44:51;;;;;;;7.50;6.77;;;13.90;99.90;;;;;;5073474;28;20810;-70
2022/05/12 02:47:17;;;;;;;12.00;6.17;;;13.90;99.90;;;;;;5073274;28;20244;-70
2022/05/12 02:49:43;;;;;;;7.80;6.37;;;13.80;99.90;;;;;;5073141;28;20170;-70
2022/05/12 02:52:09;;;;;;;7.77;6.80;;;13.80;99.90;;;;;;5072422;28;20473;-70
2022/05/12 02:54:36;;;;;;;10.20;7.53;;;13.80;99.90;;;;;;5073093;28;20177;-70
2022/05/12 02:57:02;;;;;;;8.20;7.33;;;13.70;99.90;;;;;;5073037;28;20416;-70
2022/05/12 02:59:28;;;;;;;8.13;7.17;;;13.80;99.90;;;;;;5072645;28;20514;-71
2022/05/12 03:01:53;;;;;;;9.20;6.87;;;13.70;99.90;;;;;;5073196;28;20452;-70
2022/05/12 03:04:20;;;;;;;8.13;7.00;;;13.60;99.90;;;;;;5073455;28;20185;-70
2022/05/12 03:06:45;;;;;;;9.73;8.53;;;13.50;99.90;;;;;;5073402;28;20172;-70
2022/05/12 03:09:12;;;;;;;7.13;6.43;;;13.50;99.90;;;;;;5072623;28;20538;-70
2022/05/12 03:11:37;;;;;;;12.00;7.60;;;13.60;99.90;;;;;;5072969;28;20169;-70
2022/05/12 03:14:03;;;;;;;11.20;7.13;;;13.80;99.90;;;;;;5072826;28;20433;-70
2022/05/12 03:16:29;;;;;;;8.63;7.57;;;13.90;99.90;;;;;;5072827;28;20174;-71
2022/05/12 03:18:55;;;;;;;8.43;7.50;;;14.10;99.90;;;;;;5072219;28;20220;-70
2022/05/12 03:21:21;;;;;;;9.50;7.33;;;14.20;99.90;;;;;;5072455;28;20404;-70
2022/05/12 03:23:47;;;;;;;9.93;6.77;;;14.30;99.90;;;;;;5072378;28;20459;-70
2022/05/12 03:26:13;;;;;;;11.30;6.20;;;14.20;99.90;;;;;;5072118;28;20162;-70
2022/05/12 03:28:40;;;;;;;7.83;6.30;;;14.20;99.90;;;;;;5072246;28;20518;-70
2022/05/12 03:31:07;;;;;;;10.03;7.07;;;14.30;99.90;;;;;;5072173;28;20181;-70
2022/05/12 03:33:34;;;;;;;7.67;6.20;;;14.40;99.90;;;;;;5072564;28;20412;-70
2022/05/12 03:35:59;;;;;;;10.30;6.37;;;14.40;99.90;;;;;;5072341;28;20408;-70
2022/05/12 03:38:25;;;;;;;9.30;6.90;;;14.50;99.90;;;;;;5072179;28;20423;-70
2022/05/12 03:40:52;;;;;;;6.77;5.97;;;14.50;99.90;;;;;;5071739;28;20204;-70
2022/05/12 03:46:03;;;;;;;9.20;6.30;;;14.50;99.90;;;;;;5072414;28;20169;-70
2022/05/12 03:48:29;;;;;;;7.17;5.87;;;14.50;99.90;;;;;;5072113;28;20477;-69
2022/05/12 03:50:55;;;;;;;10.23;6.27;;;14.60;99.90;;;;;;5071768;28;20416;-69
2022/05/12 03:53:20;;;;;;;7.40;6.30;;;14.50;99.90;;;;;;5071573;28;20904;-71
2022/05/12 03:55:48;;;;;;;8.90;6.20;;;14.60;99.90;;;;;;5073234;28;20687;-71
2022/05/12 03:58:13;;;;;;;10.40;6.00;;;14.60;99.90;;;;;;5072243;28;20204;-70
2022/05/12 04:00:39;;;;;;;8.30;6.60;;;14.60;99.90;;;;;;5053593;28;20427;-70
2022/05/12 04:03:04;;;;;;;9.57;6.70;;;14.50;99.90;;;;;;5013815;22;20232;-69
2022/05/12 04:05:31;;;;;;;8.40;6.50;;;14.50;99.90;;;;;;4970608;28;20215;-69
2022/05/12 04:07:58;;;;;;;10.07;6.60;;;14.50;99.90;;;;;;4969470;28;20177;-69
2022/05/12 04:10:25;;;;;;;6.97;6.07;;;14.50;99.90;;;;;;4970229;28;20401;-70
2022/05/12 04:12:52;;;;;;;7.90;6.63;;;14.50;99.90;;;;;;5044542;28;20508;-70
2022/05/12 04:15:18;;;;;;;14.03;6.93;;;14.50;99.90;;;;;;5071994;28;21095;-70
2022/05/12 04:17:44;;;;;;;10.53;7.63;;;14.50;99.90;;;;;;5071869;28;20487;-70
2022/05/12 04:20:12;;;;;;;10.17;7.97;;;14.40;99.90;;;;;;5086029;28;20417;-69
2022/05/12 04:22:42;;;;;;;12.70;7.67;;;14.50;99.90;;;;;;5092099;28;20511;-70
2022/05/12 04:25:09;;;;;;;10.70;6.90;;;14.50;99.90;;;;;;5073212;28;20837;-69
2022/05/12 04:27:36;;;;;;;8.90;7.40;;;14.50;99.90;;;;;;5087671;28;20818;-70
2022/05/12 04:30:03;;;;;;;9.73;6.90;;;14.50;99.90;;;;;;5073726;28;20431;-69
2022/05/12 04:32:30;;;;;;;8.00;6.90;;;14.50;99.90;;;;;;5072125;28;20423;-69
2022/05/12 04:35:12;;;;;;;10.87;6.87;;;14.50;99.90;;;;;;5070814;28;20560;-68
2022/05/12 04:37:40;;;;;;;10.00;7.00;;;14.60;99.90;;;;;;5086757;28;20434;-70
2022/05/12 04:40:10;;;;;;;8.20;7.27;;;14.60;99.90;;;;;;5090975;28;20752;-70
2022/05/12 04:42:36;;;;;;;12.40;7.73;;;14.50;99.90;;;;;;5088045;28;20963;-69
2022/05/12 04:45:04;;;;;;;8.20;7.50;;;14.50;99.90;;;;;;5072104;28;20443;-69
2022/05/12 04:47:30;;;;;;;11.90;8.73;;;14.50;99.90;;;;;;5071656;28;20751;-69
2022/05/12 04:49:56;;;;;;;13.03;7.43;;;14.40;99.90;;;;;;5069262;28;20411;-68
2022/05/12 04:52:23;;;;;;;7.93;6.33;;;14.40;99.90;;;;;;5068242;28;20186;-69
2022/05/12 04:54:49;;;;;;;8.67;6.00;;;14.40;99.90;;;;;;5070817;28;20419;-69
2022/05/12 04:57:14;;;;;;;7.57;6.87;;;14.40;99.90;;;;;;5076482;28;20469;-68
2022/05/12 04:59:40;;;;;;;9.30;6.70;;;14.30;99.90;;;;;;5080344;28;20230;-69
2022/05/12 05:02:05;;;;;;;8.50;6.90;;;14.30;99.90;;;;;;5077378;28;20247;-69
2022/05/12 05:04:31;;;;;;;8.60;7.10;;;14.40;99.90;;;;;;5085207;28;20269;-68
2022/05/12 05:06:56;;;;;;;11.60;6.77;;;14.40;99.90;;;;;;5081107;28;20686;-68
2022/05/12 05:09:22;;;;;;;7.33;6.47;;;14.50;99.90;;;;;;5066657;28;20208;-67
2022/05/12 05:11:48;;;;;;;9.10;5.97;;;14.60;99.90;;;;;;5067961;28;20232;-68
2022/05/12 05:14:13;;;;;;;6.70;6.03;;;14.60;99.90;;;;;;5082483;28;20261;-68
2022/05/12 05:16:39;;;;;;;9.50;7.17;;;14.60;99.90;;;;;;5079582;28;20221;-69
2022/05/12 05:19:04;;;;;;;10.70;5.93;;;14.70;99.90;;;;;;5083938;28;20201;-67
2022/05/12 05:21:30;;;;;;;8.07;6.27;;;14.70;99.90;;;;;;5073788;28;20719;-69
2022/05/12 05:23:56;;;;;;;9.73;6.93;;;14.70;99.90;;;;;;5086742;28;20737;-68
2022/05/12 05:26:21;;;;;;;8.90;5.80;;;14.60;99.90;;;;;;5079819;28;20796;-68
2022/05/12 05:28:47;;;;;;;8.00;6.70;;;14.50;99.90;;;;;;5081156;28;20220;-68
2022/05/12 05:31:14;;;;;;;9.47;5.90;;;14.60;99.90;;;;;;5084617;28;20193;-69
2022/05/12 05:33:40;;;;;;;8.97;6.77;;;14.60;99.90;;;;;;5087600;28;21372;-69
2022/05/12 05:36:06;;;;;;;7.43;6.30;;;14.60;99.90;;;;;;5076079;28;20474;-68
2022/05/12 05:38:31;;;;;;;11.77;7.23;;;14.40;99.90;;;;;;5081553;28;20220;-69
2022/05/12 05:40:57;;;;;;;7.30;6.43;;;14.40;99.90;;;;;;5076254;28;20209;-69
2022/05/12 05:43:23;;;;;;;8.50;6.67;;;14.40;99.90;;;;;;5076763;28;20225;-68
2022/05/12 05:45:50;;;;;;;10.17;7.53;;;14.40;99.90;;;;;;5073698;28;20193;-68
2022/05/12 05:48:16;;;;;;;10.17;6.57;;;14.50;99.90;;;;;;5076501;28;20772;-69
2022/05/12 05:53:31;;;;;;;6.77;5.73;;;14.60;99.90;;;;;;5086085;28;20437;-68
2022/05/12 05:56:01;;;;;;;8.73;5.60;;;14.60;99.90;;;;;;5056759;28;20410;-69
2022/05/12 05:58:28;;;;;;;9.33;6.20;;;14.50;99.90;;;;;;5082239;28;20937;-68
2022/05/12 06:00:54;;;;;;;7.80;5.80;;;14.60;99.90;;;;;;5076286;28;20426;-68
2022/05/12 06:03:20;;;;;;;7.50;5.23;;;14.70;99.90;;;;;;5069622;28;20455;-68
2022/05/12 06:05:46;;;;;;;8.13;6.10;;;14.80;99.90;;;;;;5071851;28;20411;-69
2022/05/12 06:08:14;;;;;;;8.00;6.50;;;14.80;99.90;;;;;;5078516;28;20551;-68
2022/05/12 06:10:40;;;;;;;8.47;6.40;;;14.90;99.90;;;;;;5069607;28;20424;-67
2022/05/12 06:13:08;;;;;;;8.90;6.50;;;14.90;99.90;;;;;;5069954;28;20450;-68
2022/05/12 06:15:34;;;;;;;8.00;6.63;;;15.00;99.90;;;;;;5070260;28;20762;-68
2022/05/12 06:18:04;;;;;;;14.30;6.60;;;14.90;99.90;;;;;;5077096;28;20435;-68
2022/05/12 06:20:30;;;;;;;7.53;5.93;;;15.00;99.90;;;;;;5077767;28;20188;-68
2022/05/12 06:22:56;;;;;;;7.30;5.50;;;15.10;99.90;;;;;;5082130;28;20558;-69
2022/05/12 06:25:21;;;;;;;7.77;5.07;;;15.10;99.90;;;;;;5074904;28;20202;-69
2022/05/12 06:27:47;;;;;;;10.97;5.90;;;15.10;99.90;;;;;;5086667;28;20423;-69
2022/05/12 06:30:13;;;;;;;7.17;5.20;;;15.10;99.90;;;;;;5084512;28;20174;-69
2022/05/12 06:32:40;;;;;;;10.80;5.90;;;15.20;99.90;;;;;;5074614;28;20238;-70
2022/05/12 06:35:08;;;;;;;9.30;5.77;;;15.20;99.90;;;;;;5087146;28;20415;-69
2022/05/12 06:37:34;;;;;;;9.20;5.83;;;15.20;99.90;;;;;;5089603;28;20423;-69
2022/05/12 06:40:00;;;;;;;8.13;5.40;;;15.20;99.90;;;;;;5075026;28;20415;-69
2022/05/12 06:42:25;;;;;;;6.60;5.70;;;15.30;99.90;;;;;;5080625;28;20453;-69
2022/05/12 06:44:51;;;;;;;9.00;5.43;;;15.30;99.90;;;;;;5079115;28;20292;-70
2022/05/12 06:47:16;;;;;;;9.17;5.30;;;15.40;99.90;;;;;;5084506;28;20188;-69
2022/05/12 06:49:43;;;;;;;6.07;4.83;;;15.50;99.90;;;;;;5088731;28;20732;-69
2022/05/12 06:52:10;;;;;;;5.77;4.80;;;15.60;99.90;;;;;;5074603;28;20185;-69
2022/05/12 06:54:37;;;;;;;5.80;4.90;;;15.60;99.90;;;;;;5079663;28;20447;-69
2022/05/12 06:57:04;;;;;;;5.87;5.37;;;15.60;99.90;;;;;;5078694;28;20427;-68
2022/05/12 06:59:30;;;;;;;7.53;4.80;;;15.70;99.90;;;;;;5072255;28;20422;-69
2022/05/12 07:01:55;;;;;;;7.60;5.83;;;15.70;99.90;;;;;;5072080;28;20546;-69
2022/05/12 07:04:24;;;;;;;10.00;5.67;;;15.70;99.90;;;;;;5071716;28;20808;-70
2022/05/12 07:06:49;;;;;;;5.90;4.40;;;15.70;99.90;;;;;;5072045;28;20211;-69
2022/05/12 07:09:18;;;;;;;8.20;5.30;;;15.80;99.90;;;;;;5071655;28;20419;-69
2022/05/12 07:11:44;;;;;;;8.10;6.07;;;15.80;99.90;;;;;;5071973;28;20282;-69
2022/05/12 07:14:10;;;;;;;6.80;5.40;;;15.80;99.90;;;;;;5072350;28;20455;-69
2022/05/12 07:16:36;;;;;;;8.50;4.87;;;15.90;99.90;;;;;;5072949;28;20427;-70
2022/05/12 07:19:02;;;;;;;7.87;5.67;;;15.90;99.90;;;;;;5074342;28;20431;-70
2022/05/12 07:26:56;;;;;;;7.90;4.50;;;16.00;99.90;;;;;;5073052;28;20457;-69
2022/05/12 07:29:25;;;;;;;6.87;4.40;;;16.10;99.90;;;;;;5072343;28;20899;-69
2022/05/12 07:31:50;;;;;;;7.80;4.20;;;16.00;99.90;;;;;;5075241;28;20189;-69
2022/05/12 07:34:17;;;;;;;5.53;4.23;;;16.20;99.90;;;;;;5093217;28;20426;-68
2022/05/12 07:36:50;;;;;;;4.27;3.57;;;16.40;99.90;;;;;;5093107;28;20422;-68
2022/05/12 07:39:17;;;;;;;5.23;4.20;;;16.60;99.90;;;;;;5092146;28;20409;-69
2022/05/12 07:41:42;;;;;;;8.67;4.30;;;16.80;99.90;;;;;;5091704;28;20441;-68
2022/05/12 07:44:09;;;;;;;4.17;3.77;;;16.70;99.90;;;;;;5092907;28;20455;-68
2022/05/12 07:46:36;;;;;;;7.40;3.97;;;16.70;99.90;;;;;;5093040;28;20185;-69
2022/05/12 07:49:02;;;;;;;8.40;4.77;;;16.70;99.90;;;;;;5092994;28;20430;-69
2022/05/12 07:51:28;;;;;;;6.53;4.37;;;16.80;99.90;;;;;;5092603;28;20427;-69
2022/05/12 07:53:54;;;;;;;7.10;4.50;;;16.90;99.90;;;;;;5089142;28;20469;-68
2022/05/12 07:56:22;;;;;;;4.83;4.33;;;17.20;99.90;;;;;;5071331;28;20238;-69
2022/05/12 07:58:48;;;;;;;6.07;4.17;;;17.40;99.90;;;;;;5072747;28;20779;-69
2022/05/12 08:01:15;;;;;;;7.73;4.67;;;17.60;99.90;;;;;;5071921;28;20453;-69
2022/05/12 08:03:42;;;;;;;9.77;4.77;;;17.80;99.90;;;;;;5072447;28;20456;-68
2022/05/12 08:06:08;;;;;;;5.10;4.53;;;17.90;99.50;;;;;;5072398;28;20446;-70
2022/05/12 08:08:36;;;;;;;5.93;4.23;;;18.00;99.20;;;;;;5073676;28;20400;-70
2022/05/12 08:11:03;;;;;;;4.90;4.40;;;18.10;99.20;;;;;;5072080;28;20423;-69
2022/05/12 08:13:29;;;;;;;6.53;4.87;;;18.10;98.30;;;;;;5073374;28;20443;-69
2022/05/12 08:15:55;;;;;;;6.97;4.43;;;18.10;98.20;;;;;;5073291;28;20892;-68
2022/05/12 08:18:24;;;;;;;5.17;4.67;;;18.30;98.20;;;;;;5077172;28;20182;-69
2022/05/12 08:20:50;;;;;;;13.40;4.50;;;18.50;98.10;;;;;;5079414;28;20912;-70
2022/05/12 08:23:16;;;;;;;9.70;5.50;;;18.80;97.80;;;;;;5081954;28;20719;-70
2022/05/12 08:25:43;;;;;;;4.83;4.37;;;18.90;97.40;;;;;;5079182;28;20396;-68
2022/05/12 08:28:12;;;;;;;9.10;4.27;;;18.90;97.20;;;;;;5080912;28;20415;-69
2022/05/12 08:30:37;;;;;;;5.80;3.90;;;18.70;96.20;;;;;;5081619;28;20434;-70
2022/05/12 08:33:03;;;;;;;3.37;3.00;;;18.40;96.00;;;;;;5080523;28;20432;-69
2022/05/12 08:35:28;;;;;;;8.70;4.27;;;18.20;95.40;;;;;;5073634;28;20177;-68
2022/05/12 08:37:54;;;;;;;5.33;4.13;;;17.80;96.10;;;;;;5091718;28;20207;-69
2022/05/12 08:40:35;;;;;;;4.90;3.67;;;17.60;96.90;;;;;;5097201;28;20181;-70
2022/05/12 08:43:11;;;;;;;6.53;4.50;;;17.60;97.50;;;;;;5100645;28;20212;-69
2022/05/12 08:45:36;;;;;;;3.90;3.60;;;17.50;96.90;;;;;;5096764;28;21043;-70
2022/05/12 08:48:02;;;;;;;4.90;3.70;;;17.50;96.90;;;;;;5096763;28;20411;-69
2022/05/12 08:50:30;;;;;;;6.77;4.00;;;17.50;96.70;;;;;;5099573;28;20169;-70
2022/05/12 08:53:03;;;;;;;4.73;4.20;;;17.40;97.00;;;;;;5111789;28;20423;-68
2022/05/12 08:55:49;;;;;;;6.37;4.03;;;17.50;97.40;;;;;;5096710;28;20755;-68
2022/05/12 08:58:22;;;;;;;4.97;4.27;;;17.50;97.40;;;;;;5096658;28;20411;-69
2022/05/12 09:00:57;;;;;;;7.70;4.43;;;17.50;97.30;;;;;;5096357;28;20403;-69
2022/05/12 09:03:39;;;;;;;7.17;5.80;;;17.60;97.20;;;;;;5096500;28;20484;-69
2022/05/12 09:06:13;;;;;;;6.32;5.00;;;17.60;97.30;;;;;;5093670;28;20440;-71
2022/05/12 09:08:54;;;;;;;5.57;5.00;;;17.40;97.60;;;;;;5095747;28;20195;-70
2022/05/12 09:11:36;;;;;;;5.57;5.07;;;17.60;97.70;;;;;;5084159;28;20467;-69
2022/05/12 09:14:04;;;;;;;4.50;4.00;;;17.70;97.60;;;;;;5071922;28;20466;-69
2022/05/12 09:16:32;;;;;;;7.37;5.30;;;17.90;97.40;;;;;;5085914;28;20431;-68
2022/05/12 09:18:58;;;;;;;7.43;4.43;;;18.00;96.70;;;;;;5079095;28;20422;-71
2022/05/12 09:21:27;;;;;;;5.33;4.57;;;18.10;96.30;;;;;;5076858;28;20434;-70
2022/05/12 09:23:53;;;;;;;5.97;4.27;;;18.40;96.50;;;;;;5088041;28;20450;-70
2022/05/12 09:26:39;;;;;;;5.40;4.77;;;18.50;96.00;;;;;;5075328;28;20484;-68
2022/05/12 09:29:20;;;;;;;8.00;4.67;;;18.60;96.10;;;;;;5080358;28;20415;-68
2022/05/12 09:31:47;;;;;;;6.70;4.40;;;18.80;95.60;;;;;;5082899;28;20443;-69
2022/05/12 09:34:31;;;;;;;6.57;4.50;;;18.90;94.90;;;;;;5055710;28;20407;-68
2022/05/12 09:37:12;;;;;;;4.80;4.20;;;19.00;94.70;;;;;;5080292;28;20415;-69
2022/05/12 09:39:45;;;;;;;5.37;4.50;;;19.00;94.40;;;;;;5074998;28;20423;-69
2022/05/12 09:42:27;;;;;;;6.00;4.33;;;19.10;94.50;;;;;;5087365;28;20423;-69
2022/05/12 09:44:59;;;;;;;6.20;4.70;;;19.00;94.00;;;;;;5078544;28;20467;-69
2022/05/12 09:47:26;;;;;;;6.07;4.40;;;19.10;93.30;;;;;;5076731;28;20437;-69
2022/05/12 09:50:23;;;;;;;7.80;3.57;;;19.30;93.20;;;;;;5087185;28;20188;-69
2022/05/12 09:52:55;;;;;;;5.60;4.30;;;19.50;92.80;;;;;;5080042;28;20420;-69
2022/05/12 09:55:23;;;;;;;4.70;4.20;;;19.50;91.80;;;;;;5076152;28;20169;-69
2022/05/12 09:57:55;;;;;;;5.57;3.80;;;19.30;90.90;;;;;;5087705;28;20569;-69
2022/05/12 10:00:42;;;;;;;4.13;3.67;;;19.40;91.40;;;;;;5074746;28;20910;-69
2022/05/12 10:09:14;;;;;;;4.20;3.80;;;19.80;90.50;;;;;;5080144;28;20399;-69
2022/05/12 10:12:06;;;;;;;6.60;4.60;;;19.80;90.20;;;;;;5086330;28;20438;-69
2022/05/12 10:14:52;;;;;;;5.87;4.60;;;20.00;90.00;;;;;;5067782;28;21082;-70
2022/05/12 10:17:37;;;;;;;4.10;3.70;;;19.80;88.70;;;;;;5078645;28;20465;-70
2022/05/12 10:20:10;;;;;;;5.17;4.40;;;19.80;89.30;;;;;;5087109;28;20414;-70
2022/05/12 10:23:07;;;;;;;6.33;4.40;;;19.60;86.80;;;;;;5070213;28;20546;-69
2022/05/12 10:25:57;;;;;;;5.20;4.70;;;19.20;88.10;;;;;;5070164;28;20468;-69
2022/05/12 10:29:02;;;;;;;4.60;4.27;;;18.80;90.00;;;;;;5059066;28;20410;-68
2022/05/12 10:31:46;;;;;;;6.30;4.53;;;18.80;90.50;;;;;;5076435;28;20407;-70
2022/05/12 10:34:31;;;;;;;7.03;4.73;;;18.80;90.60;;;;;;5087093;28;20415;-68
2022/05/12 10:37:22;;;;;;;6.03;4.83;;;19.00;90.60;;;;;;5089871;28;20415;-70
2022/05/12 10:40:17;;;;;;;7.57;4.60;;;19.00;90.80;;;;;;5073137;28;20403;-69
2022/05/12 10:42:57;;;;;;;6.00;4.70;;;19.20;90.80;;;;;;5080887;28;20478;-69
2022/05/12 10:46:01;;;;;;;5.90;5.30;;;19.20;90.50;;;;;;5083054;28;20473;-69
2022/05/12 10:49:07;;;;;;;5.47;5.00;;;19.10;90.60;;;;;;5060644;28;20407;-70
2022/05/12 10:51:53;;;;;;;5.40;4.90;;;19.30;90.80;;;;;;5075408;28;20443;-70
2022/05/12 10:54:53;;;;;;;4.17;3.77;;;19.20;90.80;;;;;;5058571;28;20865;-69
2022/05/12 10:57:26;;;;;;;4.57;4.00;;;19.30;90.30;;;;;;5077022;28;20400;-70
2022/05/12 11:00:18;;;;;;;5.10;3.90;;;19.30;90.00;;;;;;5086279;28;20395;-69
2022/05/12 11:02:52;;;;;;;5.07;4.43;;;19.40;90.00;;;;;;5087987;28;20474;-69
2022/05/12 11:05:29;;;;;;;5.63;4.90;;;19.00;89.00;;;;;;5076725;28;20477;-69
2022/05/12 11:08:01;;;;;;;6.97;4.43;;;18.90;90.00;;;;;;5086503;28;20870;-70
2022/05/12 11:10:42;;;;;;;7.43;4.47;;;18.90;90.30;;;;;;5074568;28;20460;-69
2022/05/12 11:13:12;;;;;;;4.73;4.23;;;19.00;90.40;;;;;;5080851;28;20537;-69
2022/05/12 11:16:22;;;;;;;4.97;4.40;;;19.10;89.60;;;;;;5074340;28;20538;-69
2022/05/12 11:18:56;;;;;;;5.03;4.10;;;19.20;89.00;;;;;;5046159;28;20614;-68
2022/05/12 11:21:29;;;;;;;4.10;3.77;;;19.30;89.80;;;;;;5046690;28;20844;-70
2022/05/12 11:24:42;;;;;;;4.30;3.90;;;19.30;89.70;;;;;;5046799;28;20461;-70
2022/05/12 11:27:20;;;;;;;5.13;4.13;;;19.30;90.00;;;;;;5003156;28;20416;-69
2022/05/12 11:30:04;;;;;;;6.10;4.00;;;19.30;90.30;;;;;;5046105;28;20427;-71
2022/05/12 11:32:50;;;;;;;5.97;4.60;;;19.10;90.00;;;;;;5036033;28;21159;-69
2022/05/12 11:35:20;;;;;;;4.60;3.77;;;19.00;90.00;;;;;;5029314;28;20459;-69
2022/05/12 11:37:50;;;;;;;7.03;4.53;;;19.00;90.00;;;;;;5045954;28;20997;-68
2022/05/12 11:40:44;;;;;;;4.77;3.77;;;19.20;90.20;;;;;;5029864;28;20419;-71
2022/05/12 11:46:30;;;;;;;4.10;3.60;;;19.50;88.40;;;;;;5029570;28;20415;-68
2022/05/12 11:49:31;;;;;;;4.07;3.47;;;19.70;89.00;;;;;;5045509;28;20459;-70
2022/05/12 11:52:28;;;;;;;3.70;3.20;;;19.80;86.10;;;;;;5046904;28;20521;-68
2022/05/12 11:55:03;;;;;;;4.47;3.23;;;19.90;84.40;;;;;;5015872;28;20409;-70
2022/05/12 11:57:34;;;;;;;4.23;3.20;;;20.00;82.90;;;;;;5074851;28;20785;-70
2022/05/12 12:00:08;;;;;;;3.90;3.30;;;19.90;82.10;;;;;;5084825;28;20395;-70
2022/05/12 12:02:33;;;;;;;3.90;3.23;;;19.90;81.60;;;;;;5072234;28;20455;-69
2022/05/12 12:05:07;;;;;;;4.70;3.70;;;19.90;82.30;;;;;;5075983;28;20477;-70
2022/05/12 12:07:32;;;;;;;6.87;4.27;;;20.00;83.40;;;;;;5082824;28;20316;-70
2022/05/12 12:10:30;;;;;;;5.07;4.57;;;20.10;85.90;;;;;;5071209;28;20429;-68
2022/05/12 12:13:05;;;;;;;5.10;4.53;;;19.70;87.50;;;;;;5087602;28;20204;-68
2022/05/12 12:15:32;;;;;;;4.83;4.43;;;19.60;88.90;;;;;;5074219;28;20403;-68
2022/05/12 12:18:00;;;;;;;6.37;4.20;;;19.30;90.20;;;;;;5083738;28;20441;-68
2022/05/12 12:20:28;;;;;;;6.10;5.00;;;19.10;89.50;;;;;;5073544;28;20469;-68
2022/05/12 12:23:16;;;;;;;4.70;4.27;;;19.00;89.80;;;;;;5078618;28;20459;-70
2022/05/12 12:25:45;;;;;;;4.17;3.77;;;19.10;89.40;;;;;;5074828;28;20502;-69
2022/05/12 12:28:41;;;;;;;4.90;3.60;;;19.30;87.00;;;;;;5071392;28;20411;-67
2022/05/12 12:31:09;;;;;;;4.80;3.70;;;19.50;85.60;;;;;;5076366;28;20426;-67
2022/05/12 12:33:39;;;;;;;4.13;3.73;;;19.70;85.60;;;;;;5083220;28;20461;-68
2022/05/12 12:36:28;;;;;;;4.27;3.83;;;19.80;86.40;;;;;;5071695;28;20431;-69
2022/05/12 12:38:53;;;;;;;5.57;5.07;;;19.70;86.60;;;;;;5078295;28;20426;-70
2022/05/12 12:41:29;;;;;;;4.40;4.00;;;19.40;88.10;;;;;;5080058;28;20455;-69
2022/05/12 12:44:01;;;;;;;5.40;4.70;;;19.40;88.20;;;;;;5071476;28;20227;-69
2022/05/12 12:46:37;;;;;;;6.83;4.30;;;19.60;86.30;;;;;;5081701;28;20777;-69
2022/05/12 12:49:29;;;;;;;5.03;4.50;;;19.60;87.00;;;;;;5078523;28;20423;-68
2022/05/12 12:52:03;;;;;;;5.00;4.50;;;19.60;87.40;;;;;;5070363;28;20451;-69
2022/05/12 12:57:50;;;;;;;5.53;4.90;;;19.50;87.60;;;;;;5080322;28;20866;-68
2022/05/12 13:00:27;;;;;;;5.80;4.40;;;19.80;87.40;;;;;;5055969;28;20461;-69
2022/05/12 13:02:59;;;;;;;4.40;3.85;;;20.10;86.20;;;;;;5077930;28;20430;-69
2022/05/12 13:05:25;;;;;;;4.37;3.50;;;20.30;84.60;;;;;;5080957;28;20222;-69
2022/05/12 13:08:00;;;;;;;4.10;3.70;;;20.30;83.20;;;;;;5084737;28;20430;-68
2022/05/12 13:10:27;;;;;;;4.47;4.07;;;20.50;83.20;;;;;;5072632;28;20176;-68
2022/05/12 13:13:06;;;;;;;6.97;3.77;;;20.30;83.20;;;;;;5078783;28;20443;-68
2022/05/12 13:15:35;;;;;;;6.90;4.30;;;20.30;83.90;;;;;;5070883;28;20416;-68
2022/05/12 13:18:04;;;;;;;4.07;3.67;;;20.20;81.10;;;;;;5084105;28;20411;-69
2022/05/12 13:20:40;;;;;;;5.57;4.77;;;20.20;81.50;;;;;;5071570;28;20494;-69
2022/05/12 13:23:10;;;;;;;5.67;3.60;;;20.30;81.30;;;;;;5075454;28;20450;-68
2022/05/12 13:25:38;;;;;;;5.77;3.80;;;20.30;80.90;;;;;;5082106;28;20593;-68